sensor_id;sensor_type;location;lat;lon;timestamp;temperature;humidity
66582;SHT31;53438;48.898;2.308;2023-08-06T03:00:20;14.81;82.96
66582;SHT31;53438;48.898;2.308;2023-08-06T03:02:45;14.83;82.86
66582;SHT31;53438;48.898;2.308;2023-08-06T03:05:11;14.83;82.53
66582;SHT31;53438;48.898;2.308;2023-08-06T03:07:36;14.73;82.75
66582;SHT31;53438;48.898;2.308;2023-08-06T03:10:03;14.72;82.77
66582;SHT31;53438;48.898;2.308;2023-08-06T03:12:28;14.86;82.99
66582;SHT31;53438;48.898;2.308;2023-08-06T03:14:53;14.76;83.05
66582;SHT31;53438;48.898;2.308;2023-08-06T03:17:20;14.73;82.59
66582;SHT31;53438;48.898;2.308;2023-08-06T03:19:46;14.82;83.16
66582;SHT31;53438;48.898;2.308;2023-08-06T03:22:11;14.60;83.21
66582;SHT31;53438;48.898;2.308;2023-08-06T03:24:36;14.60;83.35
66582;SHT31;53438;48.898;2.308;2023-08-06T03:27:02;14.67;83.26
66582;SHT31;53438;48.898;2.308;2023-08-06T03:29:27;14.65;83.58
66582;SHT31;53438;48.898;2.308;2023-08-06T03:31:52;14.58;83.68
66582;SHT31;53438;48.898;2.308;2023-08-06T03:34:18;14.64;83.43
66582;SHT31;53438;48.898;2.308;2023-08-06T03:36:43;14.44;83.92
66582;SHT31;53438;48.898;2.308;2023-08-06T03:39:09;14.51;83.81
66582;SHT31;53438;48.898;2.308;2023-08-06T03:41:34;14.64;83.98
66582;SHT31;53438;48.898;2.308;2023-08-06T03:44:00;14.60;83.77
66582;SHT31;53438;48.898;2.308;2023-08-06T03:46:27;14.60;83.72
66582;SHT31;53438;48.898;2.308;2023-08-06T03:48:53;14.52;83.70
66582;SHT31;53438;48.898;2.308;2023-08-06T03:51:18;14.45;83.80
66582;SHT31;53438;48.898;2.308;2023-08-06T03:53:44;14.62;84.10
66582;SHT31;53438;48.898;2.308;2023-08-06T03:56:09;14.55;83.44
66582;SHT31;53438;48.898;2.308;2023-08-06T03:58:34;14.57;83.61
66582;SHT31;53438;48.898;2.308;2023-08-06T04:01:01;14.61;83.66
66582;SHT31;53438;48.898;2.308;2023-08-06T04:03:27;14.69;83.07
66582;SHT31;53438;48.898;2.308;2023-08-06T04:05:52;14.60;82.30
66582;SHT31;53438;48.898;2.308;2023-08-06T04:08:17;14.65;82.39
66582;SHT31;53438;48.898;2.308;2023-08-06T04:10:43;14.71;82.64
66582;SHT31;53438;48.898;2.308;2023-08-06T04:13:08;14.72;81.90
66582;SHT31;53438;48.898;2.308;2023-08-06T04:15:34;14.71;81.78
66582;SHT31;53438;48.898;2.308;2023-08-06T04:18:00;14.78;82.00
66582;SHT31;53438;48.898;2.308;2023-08-06T04:20:25;14.78;81.40
66582;SHT31;53438;48.898;2.308;2023-08-06T04:22:50;14.81;81.11
66582;SHT31;53438;48.898;2.308;2023-08-06T04:25:16;14.79;81.15
66582;SHT31;53438;48.898;2.308;2023-08-06T04:27:46;14.72;81.23
66582;SHT31;53438;48.898;2.308;2023-08-06T04:30:12;14.76;81.37
66582;SHT31;53438;48.898;2.308;2023-08-06T04:32:38;14.72;81.74
66582;SHT31;53438;48.898;2.308;2023-08-06T04:35:04;14.62;81.27
66582;SHT31;53438;48.898;2.308;2023-08-06T04:37:29;14.57;81.12
66582;SHT31;53438;48.898;2.308;2023-08-06T04:39:55;14.57;81.61
66582;SHT31;53438;48.898;2.308;2023-08-06T04:42:20;14.55;81.82
66582;SHT31;53438;48.898;2.308;2023-08-06T04:44:45;14.48;81.99
66582;SHT31;53438;48.898;2.308;2023-08-06T04:47:11;14.61;81.67
66582;SHT31;53438;48.898;2.308;2023-08-06T04:49:36;14.65;81.78
66582;SHT31;53438;48.898;2.308;2023-08-06T04:52:01;14.67;81.81
66582;SHT31;53438;48.898;2.308;2023-08-06T04:54:27;14.64;81.86
66582;SHT31;53438;48.898;2.308;2023-08-06T04:56:52;14.67;81.68
66582;SHT31;53438;48.898;2.308;2023-08-06T04:59:17;14.76;81.78
66582;SHT31;53438;48.898;2.308;2023-08-06T05:01:43;14.71;81.15
66582;SHT31;53438;48.898;2.308;2023-08-06T05:04:08;14.71;81.55
66582;SHT31;53438;48.898;2.308;2023-08-06T05:06:33;14.73;81.48
66582;SHT31;53438;48.898;2.308;2023-08-06T05:08:59;14.68;81.65
66582;SHT31;53438;48.898;2.308;2023-08-06T05:11:24;14.78;81.47
66582;SHT31;53438;48.898;2.308;2023-08-06T05:13:50;14.86;81.40
66582;SHT31;53438;48.898;2.308;2023-08-06T05:16:15;14.78;81.70
66582;SHT31;53438;48.898;2.308;2023-08-06T05:18:41;14.85;81.14
66582;SHT31;53438;48.898;2.308;2023-08-06T05:21:07;14.67;81.62
66582;SHT31;53438;48.898;2.308;2023-08-06T05:23:32;14.57;81.99
66582;SHT31;53438;48.898;2.308;2023-08-06T05:25:57;14.64;82.55
66582;SHT31;53438;48.898;2.308;2023-08-06T05:28:23;14.46;82.85
66582;SHT31;53438;48.898;2.308;2023-08-06T05:30:48;14.54;83.06
66582;SHT31;53438;48.898;2.308;2023-08-06T05:33:13;14.45;83.50
66582;SHT31;53438;48.898;2.308;2023-08-06T05:35:41;14.54;83.53
66582;SHT31;53438;48.898;2.308;2023-08-06T05:38:07;14.42;83.94
66582;SHT31;53438;48.898;2.308;2023-08-06T05:40:35;14.40;83.59
66582;SHT31;53438;48.898;2.308;2023-08-06T05:43:00;14.41;83.57
66582;SHT31;53438;48.898;2.308;2023-08-06T05:45:26;14.42;83.65
66582;SHT31;53438;48.898;2.308;2023-08-06T05:47:51;14.48;83.94
66582;SHT31;53438;48.898;2.308;2023-08-06T05:50:19;14.57;83.33
66582;SHT31;53438;48.898;2.308;2023-08-06T05:52:44;14.58;83.76
66582;SHT31;53438;48.898;2.308;2023-08-06T05:55:09;14.57;82.98
66582;SHT31;53438;48.898;2.308;2023-08-06T05:57:35;14.49;83.43
66582;SHT31;53438;48.898;2.308;2023-08-06T06:00:02;14.71;83.41
66582;SHT31;53438;48.898;2.308;2023-08-06T06:02:27;14.57;83.29
66582;SHT31;53438;48.898;2.308;2023-08-06T06:04:53;14.58;82.88
66582;SHT31;53438;48.898;2.308;2023-08-06T06:07:18;14.65;82.80
66582;SHT31;53438;48.898;2.308;2023-08-06T06:09:43;14.49;82.80
66582;SHT31;53438;48.898;2.308;2023-08-06T06:12:09;14.69;83.12
66582;SHT31;53438;48.898;2.308;2023-08-06T06:14:34;14.76;82.28
66582;SHT31;53438;48.898;2.308;2023-08-06T06:16:59;14.67;82.68
66582;SHT31;53438;48.898;2.308;2023-08-06T06:19:25;14.82;82.16
66582;SHT31;53438;48.898;2.308;2023-08-06T06:21:51;14.92;81.72
66582;SHT31;53438;48.898;2.308;2023-08-06T06:24:17;14.99;81.79
66582;SHT31;53438;48.898;2.308;2023-08-06T06:26:42;14.83;80.39
66582;SHT31;53438;48.898;2.308;2023-08-06T06:29:07;14.86;80.55
66582;SHT31;53438;48.898;2.308;2023-08-06T06:31:33;14.88;79.94
66582;SHT31;53438;48.898;2.308;2023-08-06T06:33:58;14.88;79.82
66582;SHT31;53438;48.898;2.308;2023-08-06T06:36:23;14.81;80.25
66582;SHT31;53438;48.898;2.308;2023-08-06T06:38:49;14.81;80.34
66582;SHT31;53438;48.898;2.308;2023-08-06T06:41:14;14.98;79.96
66582;SHT31;53438;48.898;2.308;2023-08-06T06:43:40;14.81;79.84
66582;SHT31;53438;48.898;2.308;2023-08-06T06:46:05;14.83;79.87
66582;SHT31;53438;48.898;2.308;2023-08-06T06:48:32;14.85;80.08
66582;SHT31;53438;48.898;2.308;2023-08-06T06:50:58;14.85;79.95
66582;SHT31;53438;48.898;2.308;2023-08-06T06:53:24;14.85;79.78
66582;SHT31;53438;48.898;2.308;2023-08-06T06:55:56;15.18;79.20
66582;SHT31;53438;48.898;2.308;2023-08-06T06:58:22;15.31;78.45
66582;SHT31;53438;48.898;2.308;2023-08-06T07:00:48;15.27;78.05
66582;SHT31;53438;48.898;2.308;2023-08-06T07:03:16;15.27;77.35
66582;SHT31;53438;48.898;2.308;2023-08-06T07:05:44;15.46;76.48
66582;SHT31;53438;48.898;2.308;2023-08-06T07:08:09;15.34;76.04
66582;SHT31;53438;48.898;2.308;2023-08-06T07:10:35;15.37;75.34
66582;SHT31;53438;48.898;2.308;2023-08-06T07:13:00;15.51;74.88
66582;SHT31;53438;48.898;2.308;2023-08-06T07:15:25;15.49;74.28
66582;SHT31;53438;48.898;2.308;2023-08-06T07:17:51;15.55;73.36
66582;SHT31;53438;48.898;2.308;2023-08-06T07:20:16;15.47;73.12
66582;SHT31;53438;48.898;2.308;2023-08-06T07:22:42;15.58;72.81
66582;SHT31;53438;48.898;2.308;2023-08-06T07:25:07;15.67;72.13
66582;SHT31;53438;48.898;2.308;2023-08-06T07:27:33;15.92;71.83
66582;SHT31;53438;48.898;2.308;2023-08-06T07:29:58;15.72;70.98
66582;SHT31;53438;48.898;2.308;2023-08-06T07:32:24;15.91;71.28
66582;SHT31;53438;48.898;2.308;2023-08-06T07:34:49;15.81;70.11
66582;SHT31;53438;48.898;2.308;2023-08-06T07:37:15;15.90;69.91
66582;SHT31;53438;48.898;2.308;2023-08-06T07:39:40;15.94;69.86
66582;SHT31;53438;48.898;2.308;2023-08-06T07:42:07;15.95;68.54
66582;SHT31;53438;48.898;2.308;2023-08-06T07:44:33;15.70;68.70
66582;SHT31;53438;48.898;2.308;2023-08-06T07:46:58;15.62;69.04
66582;SHT31;53438;48.898;2.308;2023-08-06T07:49:23;15.68;68.62
66582;SHT31;53438;48.898;2.308;2023-08-06T07:51:49;15.87;68.41
66582;SHT31;53438;48.898;2.308;2023-08-06T07:54:18;15.97;68.65
66582;SHT31;53438;48.898;2.308;2023-08-06T07:56:43;15.84;67.67
66582;SHT31;53438;48.898;2.308;2023-08-06T07:59:08;15.98;67.71
66582;SHT31;53438;48.898;2.308;2023-08-06T08:01:34;15.97;66.67
66582;SHT31;53438;48.898;2.308;2023-08-06T08:04:00;16.05;66.02
66582;SHT31;53438;48.898;2.308;2023-08-06T08:06:25;16.08;65.48
66582;SHT31;53438;48.898;2.308;2023-08-06T08:08:51;16.19;64.07
66582;SHT31;53438;48.898;2.308;2023-08-06T08:11:18;16.36;63.68
66582;SHT31;53438;48.898;2.308;2023-08-06T08:13:43;16.61;64.31
66582;SHT31;53438;48.898;2.308;2023-08-06T08:16:09;16.45;65.87
66582;SHT31;53438;48.898;2.308;2023-08-06T08:18:34;16.49;65.75
66582;SHT31;53438;48.898;2.308;2023-08-06T08:21:00;16.34;66.23
66582;SHT31;53438;48.898;2.308;2023-08-06T08:23:25;16.23;66.40
66582;SHT31;53438;48.898;2.308;2023-08-06T08:25:50;16.19;65.50
66582;SHT31;53438;48.898;2.308;2023-08-06T08:28:16;16.39;64.85
66582;SHT31;53438;48.898;2.308;2023-08-06T08:30:41;16.36;64.01
66582;SHT31;53438;48.898;2.308;2023-08-06T08:33:07;16.30;63.56
66582;SHT31;53438;48.898;2.308;2023-08-06T08:35:33;16.29;63.81
66582;SHT31;53438;48.898;2.308;2023-08-06T08:37:59;16.53;63.60
66582;SHT31;53438;48.898;2.308;2023-08-06T08:40:31;16.90;63.55
66582;SHT31;53438;48.898;2.308;2023-08-06T08:42:58;16.87;61.95
66582;SHT31;53438;48.898;2.308;2023-08-06T08:45:26;16.94;62.14
66582;SHT31;53438;48.898;2.308;2023-08-06T08:47:51;16.98;62.67
66582;SHT31;53438;48.898;2.308;2023-08-06T08:50:17;17.17;63.36
66582;SHT31;53438;48.898;2.308;2023-08-06T08:52:44;16.90;63.92
66582;SHT31;53438;48.898;2.308;2023-08-06T08:55:12;16.92;64.61
66582;SHT31;53438;48.898;2.308;2023-08-06T08:57:39;16.95;63.63
66582;SHT31;53438;48.898;2.308;2023-08-06T09:00:05;16.98;63.21
66582;SHT31;53438;48.898;2.308;2023-08-06T09:02:32;17.14;61.59
66582;SHT31;53438;48.898;2.308;2023-08-06T09:04:58;16.92;61.64
66582;SHT31;53438;48.898;2.308;2023-08-06T09:07:27;17.03;61.18
66582;SHT31;53438;48.898;2.308;2023-08-06T09:09:53;17.01;60.87
66582;SHT31;53438;48.898;2.308;2023-08-06T09:12:19;17.12;61.13
66582;SHT31;53438;48.898;2.308;2023-08-06T09:14:44;17.29;61.08
66582;SHT31;53438;48.898;2.308;2023-08-06T09:17:10;17.17;60.36
66582;SHT31;53438;48.898;2.308;2023-08-06T09:19:36;17.20;60.40
66582;SHT31;53438;48.898;2.308;2023-08-06T09:22:01;16.98;59.75
66582;SHT31;53438;48.898;2.308;2023-08-06T09:24:27;17.35;59.76
66582;SHT31;53438;48.898;2.308;2023-08-06T09:26:53;17.58;59.49
66582;SHT31;53438;48.898;2.308;2023-08-06T09:29:19;17.69;58.27
66582;SHT31;53438;48.898;2.308;2023-08-06T09:31:46;17.80;57.71
66582;SHT31;53438;48.898;2.308;2023-08-06T09:34:15;17.93;57.86
66582;SHT31;53438;48.898;2.308;2023-08-06T09:36:52;17.93;59.14
66582;SHT31;53438;48.898;2.308;2023-08-06T09:39:19;17.27;60.35
66582;SHT31;53438;48.898;2.308;2023-08-06T09:41:46;17.14;61.79
66582;SHT31;53438;48.898;2.308;2023-08-06T09:44:25;17.29;60.51
66582;SHT31;53438;48.898;2.308;2023-08-06T09:46:53;17.22;58.23
66582;SHT31;53438;48.898;2.308;2023-08-06T09:49:20;17.59;58.50
66582;SHT31;53438;48.898;2.308;2023-08-06T09:51:46;17.62;57.77
66582;SHT31;53438;48.898;2.308;2023-08-06T09:54:16;17.66;58.00
66582;SHT31;53438;48.898;2.308;2023-08-06T09:56:42;17.58;59.12
66582;SHT31;53438;48.898;2.308;2023-08-06T09:59:07;17.79;57.74
66582;SHT31;53438;48.898;2.308;2023-08-06T10:01:34;17.82;56.86
66582;SHT31;53438;48.898;2.308;2023-08-06T10:04:01;17.93;56.68
66582;SHT31;53438;48.898;2.308;2023-08-06T10:06:28;17.69;57.38
66582;SHT31;53438;48.898;2.308;2023-08-06T10:08:54;17.82;57.92
66582;SHT31;53438;48.898;2.308;2023-08-06T10:11:22;17.73;58.65
66582;SHT31;53438;48.898;2.308;2023-08-06T10:13:50;17.93;57.38
66582;SHT31;53438;48.898;2.308;2023-08-06T10:16:18;18.38;57.12
66582;SHT31;53438;48.898;2.308;2023-08-06T10:18:44;18.62;56.68
66582;SHT31;53438;48.898;2.308;2023-08-06T10:21:10;18.26;55.80
66582;SHT31;53438;48.898;2.308;2023-08-06T10:23:36;18.20;56.61
66582;SHT31;53438;48.898;2.308;2023-08-06T10:26:05;18.41;56.31
66582;SHT31;53438;48.898;2.308;2023-08-06T10:28:35;18.10;56.67
66582;SHT31;53438;48.898;2.308;2023-08-06T10:31:01;18.20;56.41
66582;SHT31;53438;48.898;2.308;2023-08-06T10:33:40;18.51;55.57
66582;SHT31;53438;48.898;2.308;2023-08-06T10:36:08;18.49;55.51
66582;SHT31;53438;48.898;2.308;2023-08-06T10:38:35;18.85;54.27
66582;SHT31;53438;48.898;2.308;2023-08-06T10:41:03;18.89;54.44
66582;SHT31;53438;48.898;2.308;2023-08-06T10:45:55;18.61;56.09
66582;SHT31;53438;48.898;2.308;2023-08-06T10:48:33;18.30;55.13
66582;SHT31;53438;48.898;2.308;2023-08-06T10:51:00;18.44;55.41
66582;SHT31;53438;48.898;2.308;2023-08-06T10:53:25;18.48;54.17
66582;SHT31;53438;48.898;2.308;2023-08-06T10:55:51;18.86;54.16
66582;SHT31;53438;48.898;2.308;2023-08-06T10:58:16;18.67;54.93
66582;SHT31;53438;48.898;2.308;2023-08-06T11:00:42;18.79;54.42
66582;SHT31;53438;48.898;2.308;2023-08-06T11:03:08;18.94;57.30
66582;SHT31;53438;48.898;2.308;2023-08-06T11:05:34;18.88;55.36
66582;SHT31;53438;48.898;2.308;2023-08-06T11:07:59;18.76;55.20
66582;SHT31;53438;48.898;2.308;2023-08-06T11:10:24;18.79;54.45
66582;SHT31;53438;48.898;2.308;2023-08-06T11:12:50;19.06;53.77
66582;SHT31;53438;48.898;2.308;2023-08-06T11:15:16;19.26;53.95
66582;SHT31;53438;48.898;2.308;2023-08-06T11:17:41;19.06;53.22
66582;SHT31;53438;48.898;2.308;2023-08-06T11:20:08;18.82;54.20
66582;SHT31;53438;48.898;2.308;2023-08-06T11:22:33;18.72;54.87
66582;SHT31;53438;48.898;2.308;2023-08-06T11:25:00;18.62;54.89
66582;SHT31;53438;48.898;2.308;2023-08-06T11:27:26;18.68;57.04
66582;SHT31;53438;48.898;2.308;2023-08-06T11:29:53;18.47;55.24
66582;SHT31;53438;48.898;2.308;2023-08-06T11:32:18;18.57;54.94
66582;SHT31;53438;48.898;2.308;2023-08-06T11:34:44;18.85;54.48
66582;SHT31;53438;48.898;2.308;2023-08-06T11:37:10;18.76;54.34
66582;SHT31;53438;48.898;2.308;2023-08-06T11:39:37;18.67;54.62
66582;SHT31;53438;48.898;2.308;2023-08-06T11:42:04;18.73;55.73
66582;SHT31;53438;48.898;2.308;2023-08-06T11:44:34;18.55;55.26
66582;SHT31;53438;48.898;2.308;2023-08-06T11:47:02;18.64;55.44
66582;SHT31;53438;48.898;2.308;2023-08-06T11:49:40;18.78;55.73
66582;SHT31;53438;48.898;2.308;2023-08-06T11:52:18;19.10;55.44
66582;SHT31;53438;48.898;2.308;2023-08-06T11:54:59;19.46;55.09
66582;SHT31;53438;48.898;2.308;2023-08-06T11:57:25;19.54;53.96
66582;SHT31;53438;48.898;2.308;2023-08-06T11:59:50;19.46;53.41
66582;SHT31;53438;48.898;2.308;2023-08-06T12:02:15;19.30;54.48
66582;SHT31;53438;48.898;2.308;2023-08-06T12:05:04;18.99;54.80
66582;SHT31;53438;48.898;2.308;2023-08-06T12:07:31;18.95;55.11
66582;SHT31;53438;48.898;2.308;2023-08-06T12:09:57;18.67;53.57
66582;SHT31;53438;48.898;2.308;2023-08-06T12:12:23;18.64;54.15
66582;SHT31;53438;48.898;2.308;2023-08-06T12:14:48;18.59;55.18
66582;SHT31;53438;48.898;2.308;2023-08-06T12:17:14;18.79;56.59
66582;SHT31;53438;48.898;2.308;2023-08-06T12:19:39;18.96;57.84
66582;SHT31;53438;48.898;2.308;2023-08-06T12:22:04;18.79;56.40
66582;SHT31;53438;48.898;2.308;2023-08-06T12:24:30;18.81;55.59
66582;SHT31;53438;48.898;2.308;2023-08-06T12:26:59;18.76;54.98
66582;SHT31;53438;48.898;2.308;2023-08-06T12:29:27;18.81;55.14
66582;SHT31;53438;48.898;2.308;2023-08-06T12:31:53;18.82;55.25
66582;SHT31;53438;48.898;2.308;2023-08-06T12:34:18;19.00;56.01
66582;SHT31;53438;48.898;2.308;2023-08-06T12:36:44;19.29;55.43
66582;SHT31;53438;48.898;2.308;2023-08-06T12:39:09;19.26;53.61
66582;SHT31;53438;48.898;2.308;2023-08-06T12:41:35;19.12;53.73
66582;SHT31;53438;48.898;2.308;2023-08-06T12:44:01;19.43;53.82
66582;SHT31;53438;48.898;2.308;2023-08-06T12:46:26;19.19;53.95
66582;SHT31;53438;48.898;2.308;2023-08-06T12:48:51;19.17;54.22
66582;SHT31;53438;48.898;2.308;2023-08-06T12:51:17;19.12;54.39
66582;SHT31;53438;48.898;2.308;2023-08-06T12:53:42;19.27;55.20
66582;SHT31;53438;48.898;2.308;2023-08-06T12:56:09;19.23;54.69
66582;SHT31;53438;48.898;2.308;2023-08-06T12:58:34;19.26;54.06
66582;SHT31;53438;48.898;2.308;2023-08-06T13:01:00;19.20;55.17
66582;SHT31;53438;48.898;2.308;2023-08-06T13:03:25;19.22;54.96
66582;SHT31;53438;48.898;2.308;2023-08-06T13:05:50;19.27;56.71
66582;SHT31;53438;48.898;2.308;2023-08-06T13:08:17;19.30;54.95
66582;SHT31;53438;48.898;2.308;2023-08-06T13:10:42;19.34;54.69
66582;SHT31;53438;48.898;2.308;2023-08-06T13:13:08;19.27;54.26
66582;SHT31;53438;48.898;2.308;2023-08-06T13:15:35;19.16;56.05
66582;SHT31;53438;48.898;2.308;2023-08-06T13:18:00;19.13;55.42
66582;SHT31;53438;48.898;2.308;2023-08-06T13:20:26;19.10;56.64
66582;SHT31;53438;48.898;2.308;2023-08-06T13:22:52;19.23;56.02
66582;SHT31;53438;48.898;2.308;2023-08-06T13:25:19;19.41;56.01
66582;SHT31;53438;48.898;2.308;2023-08-06T13:27:44;19.31;55.17
66582;SHT31;53438;48.898;2.308;2023-08-06T13:30:11;19.43;56.17
66582;SHT31;53438;48.898;2.308;2023-08-06T13:32:36;19.43;56.68
66582;SHT31;53438;48.898;2.308;2023-08-06T13:35:04;19.51;55.36
66582;SHT31;53438;48.898;2.308;2023-08-06T13:37:29;19.47;55.47
66582;SHT31;53438;48.898;2.308;2023-08-06T13:39:54;19.50;55.00
66582;SHT31;53438;48.898;2.308;2023-08-06T13:42:20;19.63;53.36
66582;SHT31;53438;48.898;2.308;2023-08-06T13:44:45;19.70;53.30
66582;SHT31;53438;48.898;2.308;2023-08-06T13:47:11;19.88;54.11
66582;SHT31;53438;48.898;2.308;2023-08-06T13:49:36;19.73;53.27
66582;SHT31;53438;48.898;2.308;2023-08-06T13:52:01;19.89;53.05
66582;SHT31;53438;48.898;2.308;2023-08-06T13:54:27;19.53;52.66
66582;SHT31;53438;48.898;2.308;2023-08-06T13:56:52;19.49;53.28
66582;SHT31;53438;48.898;2.308;2023-08-06T13:59:18;19.40;53.81
66582;SHT31;53438;48.898;2.308;2023-08-06T14:01:45;19.43;53.56
66582;SHT31;53438;48.898;2.308;2023-08-06T14:04:10;19.46;54.37
66582;SHT31;53438;48.898;2.308;2023-08-06T14:06:36;19.49;53.95
66582;SHT31;53438;48.898;2.308;2023-08-06T14:09:01;19.34;56.17
66582;SHT31;53438;48.898;2.308;2023-08-06T14:11:27;19.39;56.75
66582;SHT31;53438;48.898;2.308;2023-08-06T14:13:52;19.36;54.85
66582;SHT31;53438;48.898;2.308;2023-08-06T14:16:17;19.49;55.23
66582;SHT31;53438;48.898;2.308;2023-08-06T14:18:44;19.46;55.47
66582;SHT31;53438;48.898;2.308;2023-08-06T14:21:09;19.51;54.25
66582;SHT31;53438;48.898;2.308;2023-08-06T14:23:35;19.67;55.07
66582;SHT31;53438;48.898;2.308;2023-08-06T14:26:00;19.88;54.16
66582;SHT31;53438;48.898;2.308;2023-08-06T14:28:25;20.25;53.93
66582;SHT31;53438;48.898;2.308;2023-08-06T14:30:51;20.35;52.44
66582;SHT31;53438;48.898;2.308;2023-08-06T14:33:16;20.26;52.75
66582;SHT31;53438;48.898;2.308;2023-08-06T14:35:41;20.04;52.85
66582;SHT31;53438;48.898;2.308;2023-08-06T14:38:07;19.77;54.94
66582;SHT31;53438;48.898;2.308;2023-08-06T14:40:32;19.75;53.52
66582;SHT31;53438;48.898;2.308;2023-08-06T14:43:02;19.75;55.35
66582;SHT31;53438;48.898;2.308;2023-08-06T14:45:28;19.57;54.22
66582;SHT31;53438;48.898;2.308;2023-08-06T14:47:53;19.68;53.82
66582;SHT31;53438;48.898;2.308;2023-08-06T14:50:18;19.82;52.98
66582;SHT31;53438;48.898;2.308;2023-08-06T14:52:44;20.04;51.73
66582;SHT31;53438;48.898;2.308;2023-08-06T14:55:09;20.35;51.71
66582;SHT31;53438;48.898;2.308;2023-08-06T14:57:34;20.09;51.92
66582;SHT31;53438;48.898;2.308;2023-08-06T15:00:00;19.78;52.05
66582;SHT31;53438;48.898;2.308;2023-08-06T15:02:26;19.88;51.95
66582;SHT31;53438;48.898;2.308;2023-08-06T15:04:51;20.07;51.78
66582;SHT31;53438;48.898;2.308;2023-08-06T15:07:16;20.22;52.72
66582;SHT31;53438;48.898;2.308;2023-08-06T15:09:42;20.21;52.12
66582;SHT31;53438;48.898;2.308;2023-08-06T15:12:07;20.15;52.84
66582;SHT31;53438;48.898;2.308;2023-08-06T15:14:33;20.18;52.09
66582;SHT31;53438;48.898;2.308;2023-08-06T15:16:58;20.07;53.49
66582;SHT31;53438;48.898;2.308;2023-08-06T15:19:24;19.91;53.18
66582;SHT31;53438;48.898;2.308;2023-08-06T15:21:50;19.88;53.55
66582;SHT31;53438;48.898;2.308;2023-08-06T15:24:15;19.77;53.44
66582;SHT31;53438;48.898;2.308;2023-08-06T15:26:40;19.81;55.65
66582;SHT31;53438;48.898;2.308;2023-08-06T15:29:06;19.70;53.95
66582;SHT31;53438;48.898;2.308;2023-08-06T15:31:39;19.60;53.79
66582;SHT31;53438;48.898;2.308;2023-08-06T15:34:06;19.75;54.22
66582;SHT31;53438;48.898;2.308;2023-08-06T15:36:33;19.81;53.14
66582;SHT31;53438;48.898;2.308;2023-08-06T15:38:58;19.84;53.04
66582;SHT31;53438;48.898;2.308;2023-08-06T15:41:24;20.12;53.29
66582;SHT31;53438;48.898;2.308;2023-08-06T15:43:49;20.08;52.65
66582;SHT31;53438;48.898;2.308;2023-08-06T15:46:14;20.11;52.86
66582;SHT31;53438;48.898;2.308;2023-08-06T15:48:41;19.87;53.31
66582;SHT31;53438;48.898;2.308;2023-08-06T15:51:06;19.75;54.14
66582;SHT31;53438;48.898;2.308;2023-08-06T15:53:33;19.78;54.33
66582;SHT31;53438;48.898;2.308;2023-08-06T15:55:58;19.67;54.54
66582;SHT31;53438;48.898;2.308;2023-08-06T15:58:23;19.51;54.14
66582;SHT31;53438;48.898;2.308;2023-08-06T16:00:49;19.58;54.37
66582;SHT31;53438;48.898;2.308;2023-08-06T16:03:14;19.58;54.10
66582;SHT31;53438;48.898;2.308;2023-08-06T16:05:40;19.49;53.87
66582;SHT31;53438;48.898;2.308;2023-08-06T16:08:06;19.47;53.93
66582;SHT31;53438;48.898;2.308;2023-08-06T16:10:31;19.40;54.20
66582;SHT31;53438;48.898;2.308;2023-08-06T16:12:56;19.36;53.57
66582;SHT31;53438;48.898;2.308;2023-08-06T16:15:21;19.37;53.49
66582;SHT31;53438;48.898;2.308;2023-08-06T16:17:47;19.43;52.96
66582;SHT31;53438;48.898;2.308;2023-08-06T16:20:12;19.45;52.76
66582;SHT31;53438;48.898;2.308;2023-08-06T16:22:40;19.67;53.04
66582;SHT31;53438;48.898;2.308;2023-08-06T16:25:05;19.68;53.28
66582;SHT31;53438;48.898;2.308;2023-08-06T16:27:35;19.73;53.62
66582;SHT31;53438;48.898;2.308;2023-08-06T16:30:00;19.54;53.51
66582;SHT31;53438;48.898;2.308;2023-08-06T16:32:25;19.54;53.73
66582;SHT31;53438;48.898;2.308;2023-08-06T16:34:51;19.51;54.24
66582;SHT31;53438;48.898;2.308;2023-08-06T16:37:17;19.53;52.84
66582;SHT31;53438;48.898;2.308;2023-08-06T16:39:43;19.64;51.72
66582;SHT31;53438;48.898;2.308;2023-08-06T16:42:08;19.63;51.84
66582;SHT31;53438;48.898;2.308;2023-08-06T16:44:33;19.54;52.13
66582;SHT31;53438;48.898;2.308;2023-08-06T16:46:59;19.56;52.49
66582;SHT31;53438;48.898;2.308;2023-08-06T16:49:25;19.73;53.79
66582;SHT31;53438;48.898;2.308;2023-08-06T16:51:50;19.73;54.83
66582;SHT31;53438;48.898;2.308;2023-08-06T16:54:16;19.66;53.69
66582;SHT31;53438;48.898;2.308;2023-08-06T16:56:41;19.70;54.99
66582;SHT31;53438;48.898;2.308;2023-08-06T16:59:06;19.66;54.78
66582;SHT31;53438;48.898;2.308;2023-08-06T17:01:32;19.73;54.84
66582;SHT31;53438;48.898;2.308;2023-08-06T17:03:57;19.60;54.33
66582;SHT31;53438;48.898;2.308;2023-08-06T17:06:22;19.43;54.50
66582;SHT31;53438;48.898;2.308;2023-08-06T17:08:48;19.47;54.20
66582;SHT31;53438;48.898;2.308;2023-08-06T17:11:13;19.46;54.15
66582;SHT31;53438;48.898;2.308;2023-08-06T17:13:39;19.54;54.32
66582;SHT31;53438;48.898;2.308;2023-08-06T17:16:04;19.37;54.15
66582;SHT31;53438;48.898;2.308;2023-08-06T17:18:29;19.40;55.02
66582;SHT31;53438;48.898;2.308;2023-08-06T17:20:55;19.43;54.07
66582;SHT31;53438;48.898;2.308;2023-08-06T17:23:21;19.50;54.37
66582;SHT31;53438;48.898;2.308;2023-08-06T17:25:46;19.57;54.04
66582;SHT31;53438;48.898;2.308;2023-08-06T17:28:12;19.47;54.51
66582;SHT31;53438;48.898;2.308;2023-08-06T17:30:41;19.49;54.79
66582;SHT31;53438;48.898;2.308;2023-08-06T17:33:07;19.46;55.97
66582;SHT31;53438;48.898;2.308;2023-08-06T17:35:33;19.29;54.94
66582;SHT31;53438;48.898;2.308;2023-08-06T17:37:59;19.39;55.42
66582;SHT31;53438;48.898;2.308;2023-08-06T17:40:25;19.24;56.43
66582;SHT31;53438;48.898;2.308;2023-08-06T17:42:51;19.13;55.78
66582;SHT31;53438;48.898;2.308;2023-08-06T17:45:17;19.08;55.74
66582;SHT31;53438;48.898;2.308;2023-08-06T17:47:43;19.02;54.98
66582;SHT31;53438;48.898;2.308;2023-08-06T17:50:09;18.96;54.94
66582;SHT31;53438;48.898;2.308;2023-08-06T17:52:34;19.05;55.76
66582;SHT31;53438;48.898;2.308;2023-08-06T17:55:00;19.17;55.05
66582;SHT31;53438;48.898;2.308;2023-08-06T17:57:25;19.06;54.29
66582;SHT31;53438;48.898;2.308;2023-08-06T17:59:50;19.02;54.48
66582;SHT31;53438;48.898;2.308;2023-08-06T18:02:16;18.99;54.98
66582;SHT31;53438;48.898;2.308;2023-08-06T18:04:41;18.96;55.65
66582;SHT31;53438;48.898;2.308;2023-08-06T18:07:06;18.98;55.37
66582;SHT31;53438;48.898;2.308;2023-08-06T18:09:33;19.10;56.05
66582;SHT31;53438;48.898;2.308;2023-08-06T18:11:58;19.05;55.45
66582;SHT31;53438;48.898;2.308;2023-08-06T18:14:23;18.99;54.98
66582;SHT31;53438;48.898;2.308;2023-08-06T18:16:49;19.08;56.07
66582;SHT31;53438;48.898;2.308;2023-08-06T18:19:14;18.99;55.47
66582;SHT31;53438;48.898;2.308;2023-08-06T18:21:39;18.98;56.44
66582;SHT31;53438;48.898;2.308;2023-08-06T18:24:05;18.92;55.88